createdAt,value
2023-05-01T00:00:50.529Z,40.88
2023-05-01T00:01:50.568Z,40.95
2023-05-01T00:02:50.629Z,40.82
2023-05-01T00:03:50.670Z,40.87
2023-05-01T00:04:50.684Z,40.80
2023-05-01T00:05:50.579Z,40.79
2023-05-01T00:06:50.709Z,40.85
2023-05-01T00:07:50.602Z,40.82
2023-05-01T00:08:50.599Z,40.92
2023-05-01T00:09:50.606Z,40.86
2023-05-01T00:10:50.664Z,40.83
2023-05-01T00:11:50.622Z,40.95
2023-05-01T00:12:50.645Z,40.90
2023-05-01T00:13:50.643Z,41.05
2023-05-01T00:14:50.655Z,40.93
2023-05-01T00:15:50.688Z,40.86
2023-05-01T00:16:50.738Z,41.02
2023-05-01T00:17:50.704Z,40.92
2023-05-01T00:18:50.692Z,40.89
2023-05-01T00:19:50.700Z,40.98
2023-05-01T00:20:50.728Z,40.79
2023-05-01T00:21:50.712Z,40.88
2023-05-01T00:22:50.728Z,40.79
2023-05-01T00:23:50.723Z,40.85
2023-05-01T00:24:50.729Z,40.79
2023-05-01T00:25:50.747Z,41.03
2023-05-01T00:26:50.750Z,40.95
2023-05-01T00:27:50.779Z,40.99
2023-05-01T00:28:50.789Z,41.17
2023-05-01T00:29:50.783Z,41.02
2023-05-01T00:30:50.800Z,40.94
2023-05-01T00:31:50.882Z,41.01
2023-05-01T00:32:50.853Z,41.00
2023-05-01T00:33:50.811Z,40.86
2023-05-01T00:34:50.819Z,40.94
2023-05-01T00:35:50.836Z,40.93
2023-05-01T00:36:50.853Z,40.93
2023-05-01T00:37:50.844Z,40.88
2023-05-01T00:38:50.855Z,40.96
2023-05-01T00:39:50.862Z,40.94
2023-05-01T00:40:50.860Z,41.02
2023-05-01T00:41:50.885Z,40.86
2023-05-01T00:42:50.869Z,41.04
2023-05-01T00:43:50.889Z,40.87
2023-05-01T00:44:50.936Z,40.92
2023-05-01T00:45:50.990Z,40.88
2023-05-01T00:46:50.905Z,41.01
2023-05-01T00:47:50.964Z,40.89
2023-05-01T00:48:50.942Z,40.94
2023-05-01T00:49:50.935Z,40.96
2023-05-01T00:50:50.952Z,40.92
2023-05-01T00:51:50.963Z,40.89
2023-05-01T00:52:50.940Z,40.85
2023-05-01T00:53:50.948Z,41.19
2023-05-01T00:54:50.984Z,40.96
2023-05-01T00:55:50.969Z,41.01
2023-05-01T00:56:51.000Z,41.00
2023-05-01T00:57:50.981Z,40.89
2023-05-01T00:58:51.024Z,41.01
2023-05-01T00:59:50.987Z,40.99
2023-05-01T01:00:51.027Z,41.00
2023-05-01T01:01:51.004Z,41.00
2023-05-01T01:02:51.096Z,40.92
2023-05-01T01:03:51.032Z,40.86
2023-05-01T01:04:51.106Z,40.90
2023-05-01T01:05:51.069Z,40.89
2023-05-01T01:06:51.100Z,41.04
2023-05-01T01:07:51.131Z,40.91
2023-05-01T01:08:51.068Z,40.92
2023-05-01T01:09:51.105Z,41.01
2023-05-01T01:10:51.519Z,40.96
2023-05-01T01:11:51.116Z,40.97
2023-05-01T01:12:51.126Z,40.89
2023-05-01T01:13:51.137Z,41.01
2023-05-01T01:14:51.143Z,40.91
2023-05-01T01:15:51.148Z,40.90
2023-05-01T01:16:51.241Z,40.84
2023-05-01T01:17:51.330Z,40.83
2023-05-01T01:18:51.185Z,40.98
2023-05-01T01:19:51.241Z,40.92
2023-05-01T01:20:51.227Z,40.93
2023-05-01T01:21:51.252Z,41.03
2023-05-01T01:22:51.238Z,40.93
2023-05-01T01:23:51.252Z,40.93
2023-05-01T01:24:51.252Z,41.00
2023-05-01T01:25:51.275Z,40.91
2023-05-01T01:26:51.271Z,40.93
2023-05-01T01:27:51.287Z,40.93
2023-05-01T01:28:51.289Z,41.00
2023-05-01T01:29:51.303Z,40.96
2023-05-01T01:30:51.368Z,40.90
2023-05-01T01:31:51.339Z,41.00
2023-05-01T01:32:51.351Z,40.97
2023-05-01T01:33:51.338Z,41.06
2023-05-01T01:34:51.333Z,41.03
2023-05-01T01:35:51.359Z,41.02
2023-05-01T01:36:51.395Z,40.99
2023-05-01T01:37:51.395Z,41.09
2023-05-01T01:38:51.394Z,41.07
2023-05-01T01:39:51.433Z,40.91
2023-05-01T01:40:51.400Z,40.96
2023-05-01T01:41:51.407Z,40.96
2023-05-01T01:42:51.423Z,40.97
2023-05-01T01:43:51.423Z,40.91
2023-05-01T01:44:51.477Z,40.97
2023-05-01T01:45:51.549Z,40.92
2023-05-01T01:46:51.448Z,41.03
2023-05-01T01:47:51.494Z,40.97
2023-05-01T01:48:51.479Z,41.01
2023-05-01T01:49:51.488Z,41.09
2023-05-01T01:50:51.521Z,40.98
2023-05-01T01:51:51.552Z,40.88
2023-05-01T01:52:51.527Z,40.94
2023-05-01T01:53:51.549Z,41.05
2023-05-01T01:54:51.557Z,41.06
2023-05-01T01:55:51.558Z,41.06
2023-05-01T01:56:51.586Z,40.95
2023-05-01T01:57:51.642Z,41.02
2023-05-01T01:58:51.609Z,41.07
2023-05-01T01:59:51.634Z,41.08
2023-05-01T02:00:51.666Z,41.04
2023-05-01T02:01:51.696Z,40.99
2023-05-01T02:02:51.765Z,41.00
2023-05-01T02:03:51.833Z,40.98
2023-05-01T02:04:51.718Z,41.01
2023-05-01T02:05:51.715Z,41.01
2023-05-01T02:06:51.792Z,41.02
2023-05-01T02:07:51.758Z,41.19
2023-05-01T02:08:51.752Z,41.02
2023-05-01T02:09:51.760Z,41.10
2023-05-01T02:10:51.778Z,41.05
2023-05-01T02:11:51.811Z,41.04
2023-05-01T02:12:51.815Z,41.02
2023-05-01T02:13:51.827Z,41.02
2023-05-01T02:14:51.827Z,41.07
2023-05-01T02:15:51.875Z,41.10
2023-05-01T02:16:51.856Z,41.07
2023-05-01T02:17:51.874Z,40.99
2023-05-01T02:18:51.887Z,41.03
2023-05-01T02:19:51.892Z,41.06
2023-05-01T02:20:51.902Z,40.96
2023-05-01T02:21:51.938Z,40.98
2023-05-01T02:22:51.948Z,40.99
2023-05-01T02:23:51.949Z,41.07
2023-05-01T02:24:51.953Z,41.03
2023-05-01T02:25:51.983Z,41.00
2023-05-01T02:26:52.001Z,40.98
2023-05-01T02:27:52.022Z,41.09
2023-05-01T02:28:52.009Z,41.06
2023-05-01T02:29:52.046Z,40.99
2023-05-01T02:30:52.059Z,40.96
2023-05-01T02:31:52.093Z,41.06
2023-05-01T02:32:52.098Z,41.09
2023-05-01T02:33:52.136Z,41.07
2023-05-01T02:34:52.141Z,41.05
2023-05-01T02:35:52.133Z,41.03
2023-05-01T02:36:52.152Z,41.07
2023-05-01T02:37:52.154Z,41.15
2023-05-01T02:38:52.196Z,41.14
2023-05-01T02:39:52.188Z,41.07
2023-05-01T02:40:52.290Z,41.07
2023-05-01T02:41:52.220Z,41.21
2023-05-01T02:42:52.253Z,41.07
2023-05-01T02:43:52.294Z,41.05
2023-05-01T02:44:52.291Z,41.05
2023-05-01T02:45:52.299Z,41.05
2023-05-01T02:46:52.350Z,41.11
2023-05-01T02:47:52.335Z,41.01
2023-05-01T02:48:52.310Z,41.05
2023-05-01T02:49:52.324Z,40.99
2023-05-01T02:50:52.345Z,41.02
2023-05-01T02:51:52.350Z,40.96
2023-05-01T02:52:52.360Z,41.08
2023-05-01T02:53:52.380Z,41.01
2023-05-01T02:54:52.384Z,41.11
2023-05-01T02:55:52.410Z,41.13
2023-05-01T02:56:52.417Z,40.99
2023-05-01T02:57:52.446Z,40.94
2023-05-01T02:58:52.457Z,41.04
2023-05-01T02:59:52.476Z,41.08
2023-05-01T03:00:52.547Z,41.11
2023-05-01T03:01:52.554Z,41.13
2023-05-01T03:02:52.543Z,41.02
2023-05-01T03:03:52.675Z,41.11
2023-05-01T03:04:52.528Z,41.15
2023-05-01T03:05:52.579Z,41.03
2023-05-01T03:06:52.577Z,40.99
2023-05-01T03:07:52.541Z,41.04
2023-05-01T03:08:52.549Z,41.07
2023-05-01T03:09:52.640Z,41.03
2023-05-01T03:10:52.621Z,41.14
2023-05-01T03:11:52.596Z,41.11
2023-05-01T03:12:52.613Z,41.12
2023-05-01T03:13:52.629Z,41.08
2023-05-01T03:14:52.625Z,41.17
2023-05-01T03:15:52.717Z,41.08
2023-05-01T03:16:52.753Z,41.12
2023-05-01T03:17:52.832Z,41.07
2023-05-01T03:18:52.717Z,41.06
2023-05-01T03:19:52.791Z,41.04
2023-05-01T03:20:52.728Z,41.03
2023-05-01T03:21:52.734Z,41.15
2023-05-01T03:22:53.553Z,41.00
2023-05-01T03:23:52.773Z,40.99
2023-05-01T03:24:52.793Z,40.96
2023-05-01T03:25:52.867Z,41.07
2023-05-01T03:26:52.818Z,41.07
2023-05-01T03:27:54.780Z,41.12
2023-05-01T03:28:52.845Z,41.02
2023-05-01T03:30:00.470Z,41.16
2023-05-01T03:30:52.925Z,41.19
2023-05-01T03:31:52.878Z,41.07
2023-05-01T03:32:52.856Z,41.10
2023-05-01T03:33:52.873Z,41.03
2023-05-01T03:34:52.908Z,41.04
2023-05-01T03:35:52.874Z,41.08
2023-05-01T03:36:52.822Z,41.14
2023-05-01T03:37:52.827Z,41.05
2023-05-01T03:38:52.802Z,41.06
2023-05-01T03:39:52.869Z,41.08
2023-05-01T03:40:52.831Z,41.05
2023-05-01T03:41:52.810Z,40.98
2023-05-01T03:42:52.760Z,41.04
2023-05-01T03:43:52.778Z,41.07
2023-05-01T03:44:52.790Z,41.11
2023-05-01T03:45:52.776Z,41.17
2023-05-01T03:46:52.801Z,41.08
2023-05-01T03:47:52.788Z,40.99
2023-05-01T03:48:52.736Z,41.03
2023-05-01T03:49:52.724Z,41.05
2023-05-01T03:50:52.727Z,41.15
2023-05-01T03:51:52.720Z,41.01
2023-05-01T03:52:52.723Z,41.07
2023-05-01T03:53:52.692Z,41.05
2023-05-01T03:54:52.681Z,41.08
2023-05-01T03:55:52.700Z,40.98
2023-05-01T03:56:52.731Z,41.05
2023-05-01T03:57:52.755Z,41.08
2023-05-01T03:58:52.761Z,41.06
2023-05-01T03:59:52.839Z,41.22
2023-05-01T04:00:52.819Z,41.09
2023-05-01T04:01:52.902Z,41.07
2023-05-01T04:02:52.982Z,41.04
2023-05-01T04:03:52.996Z,41.02
2023-05-01T04:04:52.916Z,41.03
2023-05-01T04:05:52.939Z,41.10
2023-05-01T04:06:52.978Z,41.08
2023-05-01T04:07:52.938Z,41.01
2023-05-01T04:08:52.969Z,41.07
2023-05-01T04:09:52.996Z,40.98
2023-05-01T04:10:52.985Z,41.03
2023-05-01T04:11:53.027Z,41.03
2023-05-01T04:12:53.023Z,41.06
2023-05-01T04:13:53.055Z,41.00
2023-05-01T04:14:53.075Z,41.03
2023-05-01T04:15:53.216Z,41.06
2023-05-01T04:16:53.135Z,41.01
2023-05-01T04:17:53.198Z,41.12
2023-05-01T04:18:53.211Z,41.16
2023-05-01T04:19:53.204Z,41.13
2023-05-01T04:20:53.230Z,41.11
2023-05-01T04:21:53.192Z,41.11
2023-05-01T04:22:53.226Z,41.03
2023-05-01T04:23:53.226Z,41.01
2023-05-01T04:24:53.244Z,41.08
2023-05-01T04:25:53.290Z,41.11
2023-05-01T04:26:53.441Z,41.09
2023-05-01T04:27:53.309Z,41.01
2023-05-01T04:28:53.330Z,41.09
2023-05-01T04:29:53.410Z,41.13
2023-05-01T04:30:53.394Z,41.16
2023-05-01T04:31:53.417Z,41.14
2023-05-01T04:32:53.442Z,41.00
2023-05-01T04:33:53.415Z,41.09
2023-05-01T04:34:53.442Z,41.12
2023-05-01T04:35:53.457Z,41.01
2023-05-01T04:36:53.519Z,41.06
2023-05-01T04:37:53.474Z,40.98
2023-05-01T04:38:53.500Z,41.09
2023-05-01T04:39:53.598Z,41.11
2023-05-01T04:40:53.528Z,41.08
2023-05-01T04:41:53.571Z,41.08
2023-05-01T04:42:53.578Z,41.03
2023-05-01T04:43:53.626Z,41.13
2023-05-01T04:44:53.637Z,41.10
2023-05-01T04:45:53.656Z,41.14
2023-05-01T04:46:53.793Z,41.17
2023-05-01T04:47:53.753Z,41.35
2023-05-01T04:48:53.712Z,41.18
2023-05-01T04:49:53.864Z,41.10
2023-05-01T04:50:53.776Z,41.16
2023-05-01T04:51:53.777Z,41.06
2023-05-01T04:52:53.783Z,41.12
2023-05-01T04:53:53.804Z,41.14
2023-05-01T04:54:53.847Z,41.19
2023-05-01T04:55:53.853Z,41.05
2023-05-01T04:56:53.875Z,41.06
2023-05-01T04:57:53.924Z,41.21
2023-05-01T04:58:53.927Z,41.19
2023-05-01T04:59:54.029Z,41.08
2023-05-01T05:00:53.971Z,41.09
2023-05-01T05:01:54.008Z,41.01
2023-05-01T05:02:54.043Z,41.06
2023-05-01T05:03:54.110Z,41.01
2023-05-01T05:04:54.093Z,41.06
2023-05-01T05:05:54.085Z,41.09
2023-05-01T05:06:54.186Z,41.14
2023-05-01T05:07:54.154Z,41.05
2023-05-01T05:08:54.157Z,41.06
2023-05-01T05:09:54.353Z,41.13
2023-05-01T05:10:54.202Z,41.05
2023-05-01T05:11:54.241Z,41.05
2023-05-01T05:12:54.230Z,41.17
2023-05-01T05:13:54.262Z,41.05
2023-05-01T05:14:54.288Z,41.06
2023-05-01T05:15:54.330Z,41.10
2023-05-01T05:16:54.456Z,41.15
2023-05-01T05:17:56.365Z,41.11
2023-05-01T05:18:54.366Z,41.12
2023-05-01T05:19:54.725Z,41.06
2023-05-01T05:20:54.465Z,41.11
2023-05-01T05:21:54.474Z,41.12
2023-05-01T05:22:54.459Z,41.09
2023-05-01T05:23:54.513Z,41.06
2023-05-01T05:24:54.520Z,41.04
2023-05-01T05:25:54.534Z,41.05
2023-05-01T05:26:54.557Z,41.05
2023-05-01T05:27:54.573Z,41.10
2023-05-01T05:28:54.639Z,41.16
2023-05-01T05:29:54.872Z,41.19
2023-05-01T05:30:54.663Z,41.11
2023-05-01T05:31:54.732Z,41.05
2023-05-01T05:32:54.694Z,41.11
2023-05-01T05:33:54.738Z,41.13
2023-05-01T05:34:54.724Z,41.11
2023-05-01T05:35:54.738Z,41.23
2023-05-01T05:36:54.747Z,41.14
2023-05-01T05:37:54.794Z,41.08
2023-05-01T05:38:54.784Z,41.17
2023-05-01T05:39:54.946Z,41.22
2023-05-01T05:40:54.833Z,41.06
2023-05-01T05:41:55.136Z,41.16
2023-05-01T05:42:54.892Z,41.10
2023-05-01T05:43:54.887Z,41.08
2023-05-01T05:44:54.926Z,41.13
2023-05-01T05:45:54.974Z,41.07
2023-05-01T05:46:54.979Z,41.17
2023-05-01T05:47:55.058Z,41.09
2023-05-01T05:48:55.006Z,41.25
2023-05-01T05:49:55.232Z,41.15
2023-05-01T05:50:55.059Z,41.15
2023-05-01T05:51:55.071Z,41.08
2023-05-01T05:52:55.078Z,41.19
2023-05-01T05:53:55.110Z,41.14
2023-05-01T05:54:55.137Z,41.13
2023-05-01T05:55:55.159Z,41.08
2023-05-01T05:56:55.186Z,41.11
2023-05-01T05:57:55.186Z,41.15
2023-05-01T05:58:55.213Z,41.20
2023-05-01T05:59:55.506Z,41.13
2023-05-01T06:00:55.257Z,41.12
2023-05-01T06:01:55.299Z,41.16
2023-05-01T06:02:55.499Z,41.17
2023-05-01T06:03:55.354Z,41.19
2023-05-01T06:04:55.364Z,41.14
2023-05-01T06:05:55.347Z,41.21
2023-05-01T06:06:55.445Z,41.13
2023-05-01T06:07:55.424Z,41.13
2023-05-01T06:08:55.447Z,41.13
2023-05-01T06:09:55.621Z,41.24
2023-05-01T06:10:55.463Z,41.21
2023-05-01T06:11:55.492Z,41.25
2023-05-01T06:12:58.745Z,41.17
2023-05-01T06:13:56.493Z,41.21
2023-05-01T06:14:55.492Z,41.22
2023-05-01T06:15:55.604Z,41.16
2023-05-01T06:16:55.497Z,41.18
2023-05-01T06:17:55.512Z,41.12
2023-05-01T06:18:55.475Z,41.11
2023-05-01T06:19:55.651Z,41.19
2023-05-01T06:20:55.487Z,41.16
2023-05-01T06:21:55.433Z,41.20
2023-05-01T06:22:55.453Z,41.28
2023-05-01T06:23:55.417Z,41.20
2023-05-01T06:24:55.413Z,41.36
2023-05-01T06:25:55.418Z,41.45
2023-05-01T06:26:55.439Z,41.27
2023-05-01T06:27:55.401Z,41.18
2023-05-01T06:28:55.396Z,41.15
2023-05-01T06:29:55.526Z,41.19
2023-05-01T06:30:55.409Z,41.38
2023-05-01T06:31:55.819Z,41.30
2023-05-01T06:32:55.405Z,41.20
2023-05-01T06:33:55.371Z,41.23
2023-05-01T06:34:55.340Z,41.25
2023-05-01T06:35:55.330Z,41.19
2023-05-01T06:36:55.358Z,41.19
2023-05-01T06:37:55.338Z,41.15
2023-05-01T06:38:55.328Z,41.16
2023-05-01T06:39:55.595Z,41.31
2023-05-01T06:40:55.303Z,41.29
2023-05-01T06:41:55.362Z,41.19
2023-05-01T06:42:55.301Z,41.24
2023-05-01T06:43:55.283Z,41.29
2023-05-01T06:44:55.295Z,41.26
2023-05-01T06:45:55.275Z,41.27
2023-05-01T06:46:55.406Z,41.26
2023-05-01T06:47:55.424Z,41.24
2023-05-01T06:48:55.249Z,41.35
2023-05-01T06:49:55.514Z,41.41
2023-05-01T06:50:55.250Z,41.27
2023-05-01T06:51:55.265Z,41.24
2023-05-01T06:52:55.245Z,41.31
2023-05-01T06:53:55.200Z,41.24
2023-05-01T06:54:55.232Z,41.38
2023-05-01T06:55:55.198Z,41.32
2023-05-01T06:56:55.250Z,41.39
2023-05-01T06:57:55.297Z,41.33
2023-05-01T06:58:55.251Z,41.34
2023-05-01T06:59:55.378Z,41.49
2023-05-01T07:00:55.377Z,41.34
2023-05-01T07:01:55.276Z,41.50
2023-05-01T07:02:55.730Z,41.28
2023-05-01T07:03:55.246Z,41.36
2023-05-01T07:04:55.268Z,41.30
2023-05-01T07:05:55.275Z,41.32
2023-05-01T07:06:55.291Z,41.40
2023-05-01T07:08:01.272Z,41.30
2023-05-01T07:08:56.293Z,41.30
2023-05-01T07:09:55.465Z,41.31
2023-05-01T07:10:55.314Z,41.38
2023-05-01T07:11:55.296Z,41.46
2023-05-01T07:12:55.277Z,41.40
2023-05-01T07:13:55.268Z,41.39
2023-05-01T07:14:55.265Z,41.44
2023-05-01T07:15:55.427Z,41.30
2023-05-01T07:16:55.327Z,41.34
2023-05-01T07:17:55.416Z,41.33
2023-05-01T07:18:55.223Z,41.36
2023-05-01T07:19:55.352Z,41.45
2023-05-01T07:20:55.231Z,41.36
2023-05-01T07:21:55.233Z,41.36
2023-05-01T07:22:55.189Z,41.38
2023-05-01T07:23:55.169Z,41.43
2023-05-01T07:24:55.168Z,41.48
2023-05-01T07:25:55.163Z,41.41
2023-05-01T07:26:55.186Z,41.48
2023-05-01T07:27:55.244Z,41.39
2023-05-01T07:28:55.177Z,41.37
2023-05-01T07:29:55.305Z,41.41
2023-05-01T07:30:55.147Z,41.35
2023-05-01T07:31:55.229Z,41.39
2023-05-01T07:32:55.188Z,41.45
2023-05-01T07:33:55.113Z,41.39
2023-05-01T07:34:55.152Z,41.39
2023-05-01T07:35:55.094Z,41.36
2023-05-01T07:36:55.126Z,41.40
2023-05-01T07:37:55.150Z,41.38
2023-05-01T07:38:55.093Z,41.39
2023-05-01T07:39:55.252Z,41.43
2023-05-01T07:40:55.090Z,41.44
2023-05-01T07:41:55.076Z,41.44
2023-05-01T07:42:55.109Z,41.34
2023-05-01T07:43:55.096Z,41.35
2023-05-01T07:44:55.096Z,41.35
2023-05-01T07:45:55.163Z,41.44
2023-05-01T07:46:55.124Z,41.48
2023-05-01T07:47:55.157Z,41.42
2023-05-01T07:48:55.110Z,41.45
2023-05-01T07:49:55.326Z,41.46
2023-05-01T07:50:55.120Z,41.41
2023-05-01T07:51:55.106Z,41.34
2023-05-01T07:52:55.130Z,41.45
2023-05-01T07:53:55.120Z,41.59
2023-05-01T07:54:55.112Z,41.53
2023-05-01T07:55:55.141Z,41.46
2023-05-01T07:56:55.118Z,41.49
2023-05-01T07:57:55.154Z,41.58
2023-05-01T07:58:55.140Z,41.52
2023-05-01T07:59:55.414Z,41.49
2023-05-01T08:00:55.177Z,41.57
2023-05-01T08:01:55.172Z,41.59
2023-05-01T08:02:55.295Z,41.50
2023-05-01T08:03:55.365Z,41.49
2023-05-01T08:04:55.245Z,41.37
2023-05-01T08:05:55.159Z,41.32
2023-05-01T08:06:55.337Z,41.40
2023-05-01T08:07:55.153Z,41.59
2023-05-01T08:08:55.164Z,41.35
2023-05-01T08:09:56.469Z,41.26
2023-05-01T08:10:55.167Z,41.29
2023-05-01T08:11:55.148Z,41.24
2023-05-01T08:12:55.119Z,41.34
2023-05-01T08:13:55.135Z,41.23
2023-05-01T08:14:55.121Z,41.16
2023-05-01T08:15:55.203Z,41.27
2023-05-01T08:16:55.129Z,41.26
2023-05-01T08:17:55.137Z,41.32
2023-05-01T08:18:55.120Z,41.35
2023-05-01T08:19:55.242Z,41.24
2023-05-01T08:20:55.088Z,41.16
2023-05-01T08:21:55.090Z,41.05
2023-05-01T08:22:55.099Z,41.24
2023-05-01T08:23:55.065Z,41.27
2023-05-01T08:24:55.058Z,41.37
2023-05-01T08:25:55.088Z,41.41
2023-05-01T08:26:55.067Z,41.40
2023-05-01T08:27:55.035Z,41.25
2023-05-01T08:28:55.036Z,41.28
2023-05-01T08:29:55.273Z,41.19
2023-05-01T08:30:55.041Z,41.20
2023-05-01T08:31:55.173Z,41.21
2023-05-01T08:32:55.074Z,41.18
2023-05-01T08:33:55.000Z,41.26
2023-05-01T08:34:55.019Z,41.17
2023-05-01T08:35:54.982Z,41.25
2023-05-01T08:36:54.983Z,41.34
2023-05-01T08:37:55.000Z,41.24
2023-05-01T08:38:54.974Z,41.13
2023-05-01T08:39:55.065Z,41.14
2023-05-01T08:40:54.950Z,41.16
2023-05-01T08:41:54.943Z,41.08
2023-05-01T08:42:54.943Z,41.23
2023-05-01T08:43:54.924Z,41.32
2023-05-01T08:44:54.955Z,41.05
2023-05-01T08:45:54.931Z,41.01
2023-05-01T08:46:54.962Z,40.90
2023-05-01T08:47:54.998Z,40.94
2023-05-01T08:48:54.897Z,40.93
2023-05-01T08:49:55.154Z,41.13
2023-05-01T08:50:54.906Z,40.96
2023-05-01T08:51:54.911Z,40.92
2023-05-01T08:52:54.871Z,40.89
2023-05-01T08:53:54.890Z,40.84
2023-05-01T08:54:54.862Z,40.86
2023-05-01T08:55:54.892Z,40.92
2023-05-01T08:56:54.868Z,40.82
2023-05-01T08:57:54.865Z,40.81
2023-05-01T08:58:54.829Z,40.73
2023-05-01T08:59:55.162Z,40.85
2023-05-01T09:00:54.823Z,40.84
2023-05-01T09:01:54.863Z,41.08
2023-05-01T09:02:54.904Z,40.88
2023-05-01T09:03:54.909Z,40.87
2023-05-01T09:04:54.810Z,40.88
2023-05-01T09:05:54.809Z,40.86
2023-05-01T09:06:54.845Z,40.87
2023-05-01T09:07:54.813Z,40.97
2023-05-01T09:08:54.775Z,41.08
2023-05-01T09:09:55.026Z,41.19
2023-05-01T09:10:54.749Z,41.64
2023-05-01T09:11:54.795Z,41.25
2023-05-01T09:12:54.790Z,41.28
2023-05-01T09:13:54.771Z,41.33
2023-05-01T09:14:54.737Z,41.36
2023-05-01T09:15:54.813Z,41.29
2023-05-01T09:16:54.815Z,41.50
2023-05-01T09:17:54.981Z,41.54
2023-05-01T09:18:54.764Z,41.46
2023-05-01T09:19:54.848Z,41.35
2023-05-01T09:20:54.693Z,41.66
2023-05-01T09:21:54.700Z,42.04
2023-05-01T09:22:54.771Z,41.94
2023-05-01T09:23:54.704Z,41.85
2023-05-01T09:24:54.674Z,41.87
2023-05-01T09:25:54.685Z,41.85
2023-05-01T09:26:54.644Z,41.42
2023-05-01T09:27:54.657Z,41.73
2023-05-01T09:28:54.641Z,41.42
2023-05-01T09:29:54.901Z,41.13
2023-05-01T09:30:54.664Z,41.29
2023-05-01T09:31:54.640Z,41.77
2023-05-01T09:32:54.656Z,41.27
2023-05-01T09:33:54.624Z,41.41
2023-05-01T09:34:54.614Z,41.44
2023-05-01T09:35:54.618Z,41.58
2023-05-01T09:36:54.584Z,41.33
2023-05-01T09:37:54.868Z,41.31
2023-05-01T09:38:54.686Z,41.34
2023-05-01T09:39:54.992Z,41.43
2023-05-01T09:40:54.800Z,41.63
2023-05-01T09:41:54.858Z,41.40
2023-05-01T09:42:54.922Z,41.20
2023-05-01T09:43:54.986Z,41.58
2023-05-01T09:44:55.030Z,41.46
2023-05-01T09:45:55.136Z,41.72
2023-05-01T09:46:55.172Z,41.54
2023-05-01T09:47:55.280Z,41.53
2023-05-01T09:48:55.279Z,41.21
2023-05-01T09:49:55.632Z,41.85
2023-05-01T09:50:55.401Z,41.71
2023-05-01T09:51:55.459Z,41.59
2023-05-01T09:52:55.527Z,41.52
2023-05-01T09:53:55.561Z,41.41
2023-05-01T09:54:55.640Z,41.43
2023-05-01T09:55:55.702Z,41.48
2023-05-01T09:56:55.754Z,41.39
2023-05-01T09:57:55.820Z,41.25
2023-05-01T09:58:55.868Z,41.24
2023-05-01T09:59:56.110Z,41.46
2023-05-01T10:00:56.011Z,41.68
2023-05-01T10:01:56.097Z,41.44
2023-05-01T10:02:56.265Z,41.23
2023-05-01T10:03:56.398Z,41.24
2023-05-01T10:04:56.222Z,41.19
2023-05-01T10:05:56.333Z,41.15
2023-05-01T10:06:56.431Z,41.15
2023-05-01T10:07:56.390Z,41.23
2023-05-01T10:08:56.407Z,41.10
2023-05-01T10:09:57.542Z,41.06
2023-05-01T10:10:56.478Z,41.13
2023-05-01T10:11:56.469Z,41.15
2023-05-01T10:12:56.454Z,41.11
2023-05-01T10:13:56.441Z,41.07
2023-05-01T10:14:56.433Z,41.07
2023-05-01T10:15:56.421Z,41.06
2023-05-01T10:16:56.475Z,41.14
2023-05-01T10:17:56.452Z,41.32
2023-05-01T10:18:56.407Z,41.29
2023-05-01T10:19:56.581Z,41.24
2023-05-01T10:20:56.412Z,41.20
2023-05-01T10:21:56.450Z,41.11
2023-05-01T10:22:56.382Z,41.20
2023-05-01T10:23:56.384Z,41.22
2023-05-01T10:24:56.402Z,41.29
2023-05-01T10:25:56.372Z,41.27
2023-05-01T10:26:56.367Z,41.19
2023-05-01T10:27:56.352Z,41.13
2023-05-01T10:28:56.345Z,41.11
2023-05-01T10:29:56.497Z,41.23
2023-05-01T10:30:56.338Z,41.13
2023-05-01T10:31:56.342Z,41.31
2023-05-01T10:32:56.400Z,41.21
2023-05-01T10:33:56.312Z,41.11
2023-05-01T10:34:56.521Z,41.31
2023-05-01T10:35:56.316Z,41.26
2023-05-01T10:36:56.288Z,41.10
2023-05-01T10:37:56.323Z,41.10
2023-05-01T10:38:56.315Z,41.35
2023-05-01T10:39:56.344Z,41.30
2023-05-01T10:40:56.282Z,41.15
2023-05-01T10:41:56.251Z,41.10
2023-05-01T10:42:56.251Z,41.06
2023-05-01T10:43:56.230Z,41.09
2023-05-01T10:44:56.512Z,41.13
2023-05-01T10:45:56.252Z,41.10
2023-05-01T10:46:56.286Z,41.06
2023-05-01T10:47:56.320Z,41.07
2023-05-01T10:48:56.378Z,41.07
2023-05-01T10:49:56.389Z,41.19
2023-05-01T10:50:56.474Z,41.20
2023-05-01T10:51:56.506Z,41.10
2023-05-01T10:52:56.593Z,41.30
2023-05-01T10:53:56.617Z,41.37
2023-05-01T10:54:56.905Z,41.22
2023-05-01T10:55:56.753Z,41.21
2023-05-01T10:56:56.802Z,41.21
2023-05-01T10:57:56.849Z,41.32
2023-05-01T10:58:56.931Z,41.27
2023-05-01T10:59:56.997Z,41.12
2023-05-01T11:00:57.033Z,41.11
2023-05-01T11:01:57.110Z,41.13
2023-05-01T11:02:57.179Z,41.11
2023-05-01T11:03:57.224Z,41.20
2023-05-01T11:04:57.514Z,41.42
2023-05-01T11:05:57.365Z,41.26
2023-05-01T11:06:57.413Z,41.25
2023-05-01T11:07:57.472Z,41.27
2023-05-01T11:08:57.532Z,41.32
2023-05-01T11:09:57.615Z,41.29
2023-05-01T11:10:57.656Z,41.35
2023-05-01T11:11:57.689Z,41.38
2023-05-01T11:12:57.797Z,41.26
2023-05-01T11:13:57.813Z,41.38
2023-05-01T11:14:58.301Z,41.29
2023-05-01T11:15:57.988Z,41.30
2023-05-01T11:16:58.021Z,41.30
2023-05-01T11:17:58.191Z,41.40
2023-05-01T11:18:58.147Z,41.41
2023-05-01T11:19:58.204Z,41.29
2023-05-01T11:20:58.267Z,41.23
2023-05-01T11:21:58.324Z,41.19
2023-05-01T11:22:58.417Z,41.21
2023-05-01T11:23:58.462Z,41.25
2023-05-01T11:24:58.751Z,41.37
2023-05-01T11:25:58.572Z,41.34
2023-05-01T11:26:58.641Z,41.18
2023-05-01T11:27:58.762Z,41.19
2023-05-01T11:28:58.789Z,41.18
2023-05-01T11:29:58.811Z,41.18
2023-05-01T11:30:58.895Z,41.14
2023-05-01T11:31:59.020Z,41.19
2023-05-01T11:32:59.108Z,41.23
2023-05-01T11:33:59.084Z,41.15
2023-05-01T11:34:59.463Z,41.19
2023-05-01T11:35:59.180Z,41.19
2023-05-01T11:36:59.263Z,41.21
2023-05-01T11:37:59.326Z,41.22
2023-05-01T11:38:59.373Z,41.23
2023-05-01T11:39:59.444Z,41.27
2023-05-01T11:40:59.563Z,41.23
2023-05-01T11:41:59.617Z,41.22
2023-05-01T11:42:59.688Z,41.20
2023-05-01T11:43:59.687Z,41.24
2023-05-01T11:44:59.783Z,41.26
2023-05-01T11:45:59.890Z,41.27
2023-05-01T11:46:59.876Z,41.30
2023-05-01T11:48:02.131Z,41.28
2023-05-01T11:48:59.936Z,41.32
2023-05-01T11:49:59.901Z,41.32
2023-05-01T11:50:59.904Z,41.41
2023-05-01T11:51:59.894Z,41.44
2023-05-01T11:52:59.905Z,41.46
2023-05-01T11:53:59.914Z,41.33
2023-05-01T11:55:00.081Z,41.48
2023-05-01T11:55:59.932Z,41.37
2023-05-01T11:56:59.891Z,41.36
2023-05-01T11:57:59.862Z,41.27
2023-05-01T11:58:59.887Z,41.31
2023-05-01T11:59:59.843Z,41.34
2023-05-01T12:00:59.845Z,41.36
2023-05-01T12:01:59.866Z,41.28
2023-05-01T12:02:59.988Z,41.23
2023-05-01T12:03:59.899Z,41.25
2023-05-01T12:05:00.138Z,41.27
2023-05-01T12:05:59.836Z,41.30
2023-05-01T12:06:59.829Z,41.37
2023-05-01T12:07:59.788Z,41.32
2023-05-01T12:08:59.790Z,41.27
2023-05-01T12:09:59.795Z,41.30
2023-05-01T12:10:59.772Z,41.38
2023-05-01T12:11:59.822Z,41.38
2023-05-01T12:12:59.763Z,41.37
2023-05-01T12:13:59.741Z,41.41
2023-05-01T12:14:59.935Z,41.42
2023-05-01T12:15:59.835Z,41.39
2023-05-01T12:16:59.885Z,41.44
2023-05-01T12:17:59.991Z,41.41
2023-05-01T12:18:59.997Z,41.43
2023-05-01T12:20:00.086Z,41.40
2023-05-01T12:21:00.182Z,41.34
2023-05-01T12:22:00.194Z,41.30
2023-05-01T12:23:00.276Z,41.25
2023-05-01T12:24:00.298Z,41.30
2023-05-01T12:25:00.616Z,41.32
2023-05-01T12:26:00.510Z,41.32
2023-05-01T12:27:00.485Z,41.48
2023-05-01T12:28:00.577Z,41.45
2023-05-01T12:29:00.643Z,41.42
2023-05-01T12:30:00.692Z,41.43
2023-05-01T12:31:01.677Z,41.45
2023-05-01T12:32:00.850Z,41.45
2023-05-01T12:33:00.960Z,41.38
2023-05-01T12:34:00.922Z,41.37
2023-05-01T12:35:01.275Z,41.39
2023-05-01T12:36:01.075Z,41.46
2023-05-01T12:37:01.884Z,41.65
2023-05-01T12:38:01.157Z,41.50
2023-05-01T12:39:01.221Z,41.41
2023-05-01T12:40:01.281Z,41.39
2023-05-01T12:41:01.378Z,41.54
2023-05-01T12:42:01.390Z,41.43
2023-05-01T12:43:01.477Z,41.43
2023-05-01T12:44:01.539Z,41.57
2023-05-01T12:45:01.571Z,41.53
2023-05-01T12:46:01.686Z,41.57
2023-05-01T12:47:02.014Z,41.58
2023-05-01T12:48:01.911Z,41.55
2023-05-01T12:49:01.813Z,41.54
2023-05-01T12:50:01.894Z,41.51
2023-05-01T12:51:01.963Z,41.51
2023-05-01T12:52:02.014Z,41.53
2023-05-01T12:53:02.148Z,41.43